Middleton, Massachusetts
Current Conditions -  °F | °C
As of 12:53 AM on Friday 31 Oct 2014 (Local Time) from KBVY Reporting Station
Broken Clouds Broken Clouds  
Wind Chill: 32°   Ceiling: 6000
Heat Index: 37°   Visibility: 10mi
Dew Point: 34°   Wind: 6mph
Humidity: 89%   Direction: 340°NNW
Pressure: 30"   Gusts: NA
Location:  42.6°N, 71.02°W
Report Text: KBVY 310453Z AUTO 34005KT 10SM BKN060 03/01 A3000 RMK AO2 SLP155 T00280011 401390011
Loading
Personal Weather Stations






























Interactive Weather Map
Tropical Storm Tracking
New forecast layout! Learn more

10-Day Weather Forecast

Advertisements
Track Severe Weather on mobile